sensor_id;sensor_type;location;lat;lon;timestamp;temperature;humidity
50067;DHT22;35952;52.524;13.340;2022-10-22T00:02:16;13.80;99.90
50067;DHT22;35952;52.524;13.340;2022-10-22T00:04:45;13.90;99.90
50067;DHT22;35952;52.524;13.340;2022-10-22T00:07:11;13.90;99.90
50067;DHT22;35952;52.524;13.340;2022-10-22T00:09:36;13.90;99.90
50067;DHT22;35952;52.524;13.340;2022-10-22T00:12:02;13.90;99.90
50067;DHT22;35952;52.524;13.340;2022-10-22T00:14:28;14.00;99.90
50067;DHT22;35952;52.524;13.340;2022-10-22T00:16:53;14.00;99.90
50067;DHT22;35952;52.524;13.340;2022-10-22T00:19:20;14.00;99.90
50067;DHT22;35952;52.524;13.340;2022-10-22T00:21:46;14.10;99.90
50067;DHT22;35952;52.524;13.340;2022-10-22T00:24:12;14.10;99.90
50067;DHT22;35952;52.524;13.340;2022-10-22T00:26:37;14.10;99.90
50067;DHT22;35952;52.524;13.340;2022-10-22T00:29:04;14.10;99.90
50067;DHT22;35952;52.524;13.340;2022-10-22T00:31:30;14.10;99.90
50067;DHT22;35952;52.524;13.340;2022-10-22T00:33:55;14.00;99.90
50067;DHT22;35952;52.524;13.340;2022-10-22T00:36:21;13.90;99.90
50067;DHT22;35952;52.524;13.340;2022-10-22T00:38:46;14.00;99.90
50067;DHT22;35952;52.524;13.340;2022-10-22T00:41:12;14.00;99.90
50067;DHT22;35952;52.524;13.340;2022-10-22T00:44:02;13.90;99.90
50067;DHT22;35952;52.524;13.340;2022-10-22T00:46:29;13.90;99.90
50067;DHT22;35952;52.524;13.340;2022-10-22T00:48:56;13.90;99.90
50067;DHT22;35952;52.524;13.340;2022-10-22T00:51:26;13.80;99.90
50067;DHT22;35952;52.524;13.340;2022-10-22T00:53:55;13.80;99.90
50067;DHT22;35952;52.524;13.340;2022-10-22T00:56:24;13.80;99.90
50067;DHT22;35952;52.524;13.340;2022-10-22T00:58:53;13.80;99.90
50067;DHT22;35952;52.524;13.340;2022-10-22T01:01:26;14.00;99.90
50067;DHT22;35952;52.524;13.340;2022-10-22T01:03:52;14.00;99.90
50067;DHT22;35952;52.524;13.340;2022-10-22T01:06:25;14.00;99.90
50067;DHT22;35952;52.524;13.340;2022-10-22T01:11:48;14.10;99.90
50067;DHT22;35952;52.524;13.340;2022-10-22T01:17:27;14.20;99.90
50067;DHT22;35952;52.524;13.340;2022-10-22T01:20:00;14.30;99.90
50067;DHT22;35952;52.524;13.340;2022-10-22T01:22:53;14.20;99.90
50067;DHT22;35952;52.524;13.340;2022-10-22T01:31:14;14.00;99.90
50067;DHT22;35952;52.524;13.340;2022-10-22T01:33:41;14.00;99.90
50067;DHT22;35952;52.524;13.340;2022-10-22T01:36:08;13.90;99.90
50067;DHT22;35952;52.524;13.340;2022-10-22T01:38:35;13.80;99.90
50067;DHT22;35952;52.524;13.340;2022-10-22T01:41:02;13.80;99.90
50067;DHT22;35952;52.524;13.340;2022-10-22T01:43:27;13.80;99.90
50067;DHT22;35952;52.524;13.340;2022-10-22T01:45:58;13.80;99.90
50067;DHT22;35952;52.524;13.340;2022-10-22T01:48:35;13.70;99.90
50067;DHT22;35952;52.524;13.340;2022-10-22T01:51:29;13.80;99.90
50067;DHT22;35952;52.524;13.340;2022-10-22T01:59:42;13.80;99.90
50067;DHT22;35952;52.524;13.340;2022-10-22T02:02:37;13.90;99.90
50067;DHT22;35952;52.524;13.340;2022-10-22T02:05:19;13.80;99.90
50067;DHT22;35952;52.524;13.340;2022-10-22T02:07:56;13.70;99.90
50067;DHT22;35952;52.524;13.340;2022-10-22T02:10:24;13.80;99.90
50067;DHT22;35952;52.524;13.340;2022-10-22T02:12:53;13.90;99.90
50067;DHT22;35952;52.524;13.340;2022-10-22T02:15:21;13.80;99.90
50067;DHT22;35952;52.524;13.340;2022-10-22T02:17:49;13.90;99.90
50067;DHT22;35952;52.524;13.340;2022-10-22T02:22:40;13.80;99.90
50067;DHT22;35952;52.524;13.340;2022-10-22T02:25:08;13.70;99.90
50067;DHT22;35952;52.524;13.340;2022-10-22T02:30:43;13.60;99.90
50067;DHT22;35952;52.524;13.340;2022-10-22T02:33:22;13.60;99.90
50067;DHT22;35952;52.524;13.340;2022-10-22T02:35:51;13.50;99.90
50067;DHT22;35952;52.524;13.340;2022-10-22T02:38:18;13.50;99.90
50067;DHT22;35952;52.524;13.340;2022-10-22T02:40:43;13.50;99.90
50067;DHT22;35952;52.524;13.340;2022-10-22T02:43:09;13.50;99.90
50067;DHT22;35952;52.524;13.340;2022-10-22T02:45:35;13.60;99.90
50067;DHT22;35952;52.524;13.340;2022-10-22T02:48:01;13.60;99.90
50067;DHT22;35952;52.524;13.340;2022-10-22T02:50:27;13.70;99.90
50067;DHT22;35952;52.524;13.340;2022-10-22T02:52:52;13.50;99.90
50067;DHT22;35952;52.524;13.340;2022-10-22T02:55:18;13.60;99.90
50067;DHT22;35952;52.524;13.340;2022-10-22T02:57:43;13.50;99.90
50067;DHT22;35952;52.524;13.340;2022-10-22T03:00:10;13.50;99.90
50067;DHT22;35952;52.524;13.340;2022-10-22T03:02:36;13.50;99.90
50067;DHT22;35952;52.524;13.340;2022-10-22T03:05:02;13.50;99.90
50067;DHT22;35952;52.524;13.340;2022-10-22T03:07:28;13.50;99.90
50067;DHT22;35952;52.524;13.340;2022-10-22T03:09:53;13.40;99.90
50067;DHT22;35952;52.524;13.340;2022-10-22T03:12:19;13.40;99.90
50067;DHT22;35952;52.524;13.340;2022-10-22T03:14:44;13.40;99.90
50067;DHT22;35952;52.524;13.340;2022-10-22T03:17:09;13.40;99.90
50067;DHT22;35952;52.524;13.340;2022-10-22T03:19:35;13.40;99.90
50067;DHT22;35952;52.524;13.340;2022-10-22T03:22:06;13.50;99.90
50067;DHT22;35952;52.524;13.340;2022-10-22T03:24:40;13.40;99.90
50067;DHT22;35952;52.524;13.340;2022-10-22T03:27:06;13.40;99.90
50067;DHT22;35952;52.524;13.340;2022-10-22T03:29:35;13.50;99.90
50067;DHT22;35952;52.524;13.340;2022-10-22T03:32:01;13.40;99.90
50067;DHT22;35952;52.524;13.340;2022-10-22T03:34:27;13.40;99.90
50067;DHT22;35952;52.524;13.340;2022-10-22T03:36:53;13.40;99.90
50067;DHT22;35952;52.524;13.340;2022-10-22T03:39:19;13.30;99.90
50067;DHT22;35952;52.524;13.340;2022-10-22T03:41:46;13.30;99.90
50067;DHT22;35952;52.524;13.340;2022-10-22T03:44:13;13.30;99.90
50067;DHT22;35952;52.524;13.340;2022-10-22T03:46:39;13.30;99.90
50067;DHT22;35952;52.524;13.340;2022-10-22T03:49:05;13.20;99.90
50067;DHT22;35952;52.524;13.340;2022-10-22T03:51:30;13.20;99.90
50067;DHT22;35952;52.524;13.340;2022-10-22T03:53:56;13.20;99.90
50067;DHT22;35952;52.524;13.340;2022-10-22T03:56:21;13.30;99.90
50067;DHT22;35952;52.524;13.340;2022-10-22T03:58:47;13.30;99.90
50067;DHT22;35952;52.524;13.340;2022-10-22T04:01:13;13.20;99.90
50067;DHT22;35952;52.524;13.340;2022-10-22T04:03:39;13.20;99.90
50067;DHT22;35952;52.524;13.340;2022-10-22T04:06:10;13.20;99.90
50067;DHT22;35952;52.524;13.340;2022-10-22T04:08:38;13.20;99.90
50067;DHT22;35952;52.524;13.340;2022-10-22T04:11:03;13.30;99.90
50067;DHT22;35952;52.524;13.340;2022-10-22T04:13:29;13.30;99.90
50067;DHT22;35952;52.524;13.340;2022-10-22T04:15:54;13.30;99.90
50067;DHT22;35952;52.524;13.340;2022-10-22T04:18:22;13.30;99.90
50067;DHT22;35952;52.524;13.340;2022-10-22T04:20:50;13.40;99.90
50067;DHT22;35952;52.524;13.340;2022-10-22T04:23:16;13.30;99.90
50067;DHT22;35952;52.524;13.340;2022-10-22T04:25:42;13.30;99.90
50067;DHT22;35952;52.524;13.340;2022-10-22T04:28:08;13.30;99.90
50067;DHT22;35952;52.524;13.340;2022-10-22T04:30:35;13.40;99.90
50067;DHT22;35952;52.524;13.340;2022-10-22T04:33:01;13.30;99.90
50067;DHT22;35952;52.524;13.340;2022-10-22T04:35:26;13.40;99.90
50067;DHT22;35952;52.524;13.340;2022-10-22T04:37:53;13.30;99.90
50067;DHT22;35952;52.524;13.340;2022-10-22T04:40:18;13.30;99.90
50067;DHT22;35952;52.524;13.340;2022-10-22T04:42:44;13.40;99.90
50067;DHT22;35952;52.524;13.340;2022-10-22T04:45:10;13.30;99.90
50067;DHT22;35952;52.524;13.340;2022-10-22T04:47:35;13.40;99.90
50067;DHT22;35952;52.524;13.340;2022-10-22T04:50:01;13.30;99.90
50067;DHT22;35952;52.524;13.340;2022-10-22T04:52:26;13.30;99.90
50067;DHT22;35952;52.524;13.340;2022-10-22T04:54:52;13.30;99.90
50067;DHT22;35952;52.524;13.340;2022-10-22T04:57:17;13.20;99.90
50067;DHT22;35952;52.524;13.340;2022-10-22T04:59:42;13.20;99.90
50067;DHT22;35952;52.524;13.340;2022-10-22T05:02:08;13.10;99.90
50067;DHT22;35952;52.524;13.340;2022-10-22T05:04:33;13.10;99.90
50067;DHT22;35952;52.524;13.340;2022-10-22T05:06:59;13.00;99.90
50067;DHT22;35952;52.524;13.340;2022-10-22T05:09:24;13.00;99.90
50067;DHT22;35952;52.524;13.340;2022-10-22T05:11:51;13.00;99.90
50067;DHT22;35952;52.524;13.340;2022-10-22T05:14:22;13.00;99.90
50067;DHT22;35952;52.524;13.340;2022-10-22T05:16:49;13.00;99.90
50067;DHT22;35952;52.524;13.340;2022-10-22T05:19:19;13.00;99.90
50067;DHT22;35952;52.524;13.340;2022-10-22T05:21:45;13.00;99.90
50067;DHT22;35952;52.524;13.340;2022-10-22T05:24:10;13.00;99.90
50067;DHT22;35952;52.524;13.340;2022-10-22T05:26:36;13.00;99.90
50067;DHT22;35952;52.524;13.340;2022-10-22T05:29:02;13.00;99.90
50067;DHT22;35952;52.524;13.340;2022-10-22T05:31:27;12.90;99.90
50067;DHT22;35952;52.524;13.340;2022-10-22T05:33:54;13.00;99.90
50067;DHT22;35952;52.524;13.340;2022-10-22T05:36:21;12.90;99.90
50067;DHT22;35952;52.524;13.340;2022-10-22T05:38:46;12.90;99.90
50067;DHT22;35952;52.524;13.340;2022-10-22T05:41:16;12.90;99.90
50067;DHT22;35952;52.524;13.340;2022-10-22T05:43:41;12.90;99.90
50067;DHT22;35952;52.524;13.340;2022-10-22T05:46:09;12.90;99.90
50067;DHT22;35952;52.524;13.340;2022-10-22T05:48:35;12.90;99.90
50067;DHT22;35952;52.524;13.340;2022-10-22T05:51:11;12.90;99.90
50067;DHT22;35952;52.524;13.340;2022-10-22T05:53:39;12.90;99.90
50067;DHT22;35952;52.524;13.340;2022-10-22T05:56:13;12.90;99.90
50067;DHT22;35952;52.524;13.340;2022-10-22T05:58:39;12.80;99.90
50067;DHT22;35952;52.524;13.340;2022-10-22T06:03:43;12.90;99.90
50067;DHT22;35952;52.524;13.340;2022-10-22T06:08:50;12.90;99.90
50067;DHT22;35952;52.524;13.340;2022-10-22T06:11:17;12.80;99.90
50067;DHT22;35952;52.524;13.340;2022-10-22T06:13:44;12.80;99.90
50067;DHT22;35952;52.524;13.340;2022-10-22T06:16:10;12.80;99.90
50067;DHT22;35952;52.524;13.340;2022-10-22T06:18:36;12.80;99.90
50067;DHT22;35952;52.524;13.340;2022-10-22T06:21:10;12.80;99.90
50067;DHT22;35952;52.524;13.340;2022-10-22T06:23:36;12.80;99.90
50067;DHT22;35952;52.524;13.340;2022-10-22T06:26:02;12.80;99.90
50067;DHT22;35952;52.524;13.340;2022-10-22T06:28:28;12.90;99.90
50067;DHT22;35952;52.524;13.340;2022-10-22T06:30:56;12.90;99.90
50067;DHT22;35952;52.524;13.340;2022-10-22T06:33:22;13.00;99.90
50067;DHT22;35952;52.524;13.340;2022-10-22T06:35:47;13.00;99.90
50067;DHT22;35952;52.524;13.340;2022-10-22T06:38:13;13.10;99.90
50067;DHT22;35952;52.524;13.340;2022-10-22T06:40:39;13.20;99.90
50067;DHT22;35952;52.524;13.340;2022-10-22T06:43:08;13.30;99.90
50067;DHT22;35952;52.524;13.340;2022-10-22T06:45:33;13.40;99.90
50067;DHT22;35952;52.524;13.340;2022-10-22T06:47:59;13.50;99.90
50067;DHT22;35952;52.524;13.340;2022-10-22T06:50:24;13.50;99.90
50067;DHT22;35952;52.524;13.340;2022-10-22T06:52:50;13.60;99.90
50067;DHT22;35952;52.524;13.340;2022-10-22T06:55:16;13.60;99.90
50067;DHT22;35952;52.524;13.340;2022-10-22T06:57:41;13.50;99.90
50067;DHT22;35952;52.524;13.340;2022-10-22T07:00:07;13.50;99.90
50067;DHT22;35952;52.524;13.340;2022-10-22T07:02:33;13.60;99.90
50067;DHT22;35952;52.524;13.340;2022-10-22T07:04:58;13.60;99.90
50067;DHT22;35952;52.524;13.340;2022-10-22T07:07:24;13.60;99.90
50067;DHT22;35952;52.524;13.340;2022-10-22T07:09:49;13.70;99.90
50067;DHT22;35952;52.524;13.340;2022-10-22T07:12:16;13.80;99.90
50067;DHT22;35952;52.524;13.340;2022-10-22T07:14:41;13.70;99.90
50067;DHT22;35952;52.524;13.340;2022-10-22T07:17:07;13.70;99.90
50067;DHT22;35952;52.524;13.340;2022-10-22T07:19:32;13.60;99.90
50067;DHT22;35952;52.524;13.340;2022-10-22T07:21:58;13.70;99.90
50067;DHT22;35952;52.524;13.340;2022-10-22T07:24:24;13.80;99.90
50067;DHT22;35952;52.524;13.340;2022-10-22T07:26:49;13.80;99.90
50067;DHT22;35952;52.524;13.340;2022-10-22T07:29:15;13.80;99.90
50067;DHT22;35952;52.524;13.340;2022-10-22T07:31:41;13.90;99.90
50067;DHT22;35952;52.524;13.340;2022-10-22T07:34:07;13.90;99.90
50067;DHT22;35952;52.524;13.340;2022-10-22T07:36:32;13.90;99.90
50067;DHT22;35952;52.524;13.340;2022-10-22T07:38:59;14.00;99.90
50067;DHT22;35952;52.524;13.340;2022-10-22T07:41:26;14.20;99.90
50067;DHT22;35952;52.524;13.340;2022-10-22T07:43:51;14.40;99.90
50067;DHT22;35952;52.524;13.340;2022-10-22T07:46:18;14.70;99.90
50067;DHT22;35952;52.524;13.340;2022-10-22T07:48:43;14.90;99.90
50067;DHT22;35952;52.524;13.340;2022-10-22T07:51:09;15.00;99.90
50067;DHT22;35952;52.524;13.340;2022-10-22T07:53:35;15.10;99.90
50067;DHT22;35952;52.524;13.340;2022-10-22T07:56:00;15.20;99.90
50067;DHT22;35952;52.524;13.340;2022-10-22T07:58:26;15.30;99.90
50067;DHT22;35952;52.524;13.340;2022-10-22T08:00:55;15.20;99.90
50067;DHT22;35952;52.524;13.340;2022-10-22T08:03:21;15.20;99.90
50067;DHT22;35952;52.524;13.340;2022-10-22T08:05:46;15.20;99.90
50067;DHT22;35952;52.524;13.340;2022-10-22T08:08:14;15.10;99.90
50067;DHT22;35952;52.524;13.340;2022-10-22T08:10:41;15.00;99.90
50067;DHT22;35952;52.524;13.340;2022-10-22T08:13:07;15.00;99.90
50067;DHT22;35952;52.524;13.340;2022-10-22T08:15:33;15.10;99.90
50067;DHT22;35952;52.524;13.340;2022-10-22T08:17:58;15.20;99.90
50067;DHT22;35952;52.524;13.340;2022-10-22T08:20:24;15.30;99.90
50067;DHT22;35952;52.524;13.340;2022-10-22T08:22:49;15.30;99.90
50067;DHT22;35952;52.524;13.340;2022-10-22T08:25:15;15.20;99.90
50067;DHT22;35952;52.524;13.340;2022-10-22T08:27:43;15.30;99.90
50067;DHT22;35952;52.524;13.340;2022-10-22T08:30:09;15.40;99.90
50067;DHT22;35952;52.524;13.340;2022-10-22T08:32:35;15.40;99.90
50067;DHT22;35952;52.524;13.340;2022-10-22T08:35:00;15.50;99.90
50067;DHT22;35952;52.524;13.340;2022-10-22T08:37:26;15.50;99.90
50067;DHT22;35952;52.524;13.340;2022-10-22T08:39:51;15.50;99.90
50067;DHT22;35952;52.524;13.340;2022-10-22T08:45:41;15.50;99.90
50067;DHT22;35952;52.524;13.340;2022-10-22T08:50:47;15.60;99.90
50067;DHT22;35952;52.524;13.340;2022-10-22T08:53:17;15.70;99.90
50067;DHT22;35952;52.524;13.340;2022-10-22T08:55:44;15.70;99.90
50067;DHT22;35952;52.524;13.340;2022-10-22T08:58:35;15.80;99.90
50067;DHT22;35952;52.524;13.340;2022-10-22T09:01:12;15.80;99.90
50067;DHT22;35952;52.524;13.340;2022-10-22T09:06:27;15.80;99.90
50067;DHT22;35952;52.524;13.340;2022-10-22T09:08:53;15.70;99.90
50067;DHT22;35952;52.524;13.340;2022-10-22T09:11:22;15.80;99.90
50067;DHT22;35952;52.524;13.340;2022-10-22T09:13:48;15.90;99.90
50067;DHT22;35952;52.524;13.340;2022-10-22T09:19:22;15.90;99.90
50067;DHT22;35952;52.524;13.340;2022-10-22T09:25:10;16.10;99.90
50067;DHT22;35952;52.524;13.340;2022-10-22T09:27:40;16.20;99.90
50067;DHT22;35952;52.524;13.340;2022-10-22T09:30:09;16.30;99.90
50067;DHT22;35952;52.524;13.340;2022-10-22T09:32:35;16.30;99.90
50067;DHT22;35952;52.524;13.340;2022-10-22T09:35:01;16.30;99.90
50067;DHT22;35952;52.524;13.340;2022-10-22T09:37:28;16.30;99.90
50067;DHT22;35952;52.524;13.340;2022-10-22T09:39:56;16.40;99.90
50067;DHT22;35952;52.524;13.340;2022-10-22T09:42:24;16.60;99.90
50067;DHT22;35952;52.524;13.340;2022-10-22T09:44:53;16.70;99.90
50067;DHT22;35952;52.524;13.340;2022-10-22T09:47:32;16.90;99.90
50067;DHT22;35952;52.524;13.340;2022-10-22T09:50:26;17.00;99.90
50067;DHT22;35952;52.524;13.340;2022-10-22T09:53:03;17.10;99.90
50067;DHT22;35952;52.524;13.340;2022-10-22T09:55:29;17.10;99.90
50067;DHT22;35952;52.524;13.340;2022-10-22T09:57:59;17.10;99.90
50067;DHT22;35952;52.524;13.340;2022-10-22T10:00:26;17.00;99.90
50067;DHT22;35952;52.524;13.340;2022-10-22T10:02:56;16.80;99.90
50067;DHT22;35952;52.524;13.340;2022-10-22T10:05:31;16.80;99.90
50067;DHT22;35952;52.524;13.340;2022-10-22T10:07:58;16.70;99.90
50067;DHT22;35952;52.524;13.340;2022-10-22T10:10:32;16.70;99.90
50067;DHT22;35952;52.524;13.340;2022-10-22T10:15:54;16.60;99.90
50067;DHT22;35952;52.524;13.340;2022-10-22T10:18:52;16.70;99.90
50067;DHT22;35952;52.524;13.340;2022-10-22T10:21:46;16.60;99.90
50067;DHT22;35952;52.524;13.340;2022-10-22T10:24:25;16.60;99.90
50067;DHT22;35952;52.524;13.340;2022-10-22T10:26:59;16.60;99.90
50067;DHT22;35952;52.524;13.340;2022-10-22T10:29:33;16.70;99.90
50067;DHT22;35952;52.524;13.340;2022-10-22T10:32:43;16.80;99.90
50067;DHT22;35952;52.524;13.340;2022-10-22T10:35:25;17.00;99.90
50067;DHT22;35952;52.524;13.340;2022-10-22T10:43:58;17.00;99.90
50067;DHT22;35952;52.524;13.340;2022-10-22T10:46:36;17.00;99.90
50067;DHT22;35952;52.524;13.340;2022-10-22T10:49:22;16.90;99.90
50067;DHT22;35952;52.524;13.340;2022-10-22T11:05:35;18.20;99.90
50067;DHT22;35952;52.524;13.340;2022-10-22T11:11:07;18.70;99.90
50067;DHT22;35952;52.524;13.340;2022-10-22T11:13:52;19.20;99.90
50067;DHT22;35952;52.524;13.340;2022-10-22T11:16:34;19.20;99.90
50067;DHT22;35952;52.524;13.340;2022-10-22T11:22:08;19.10;99.90
50067;DHT22;35952;52.524;13.340;2022-10-22T11:27:31;19.30;99.90
50067;DHT22;35952;52.524;13.340;2022-10-22T11:30:02;19.20;99.90
50067;DHT22;35952;52.524;13.340;2022-10-22T11:32:29;19.00;99.90
50067;DHT22;35952;52.524;13.340;2022-10-22T11:35:00;18.90;99.90
50067;DHT22;35952;52.524;13.340;2022-10-22T11:37:30;18.70;99.90
50067;DHT22;35952;52.524;13.340;2022-10-22T11:40:19;18.50;99.90
50067;DHT22;35952;52.524;13.340;2022-10-22T11:42:50;18.20;99.90
50067;DHT22;35952;52.524;13.340;2022-10-22T11:50:48;17.80;99.90
50067;DHT22;35952;52.524;13.340;2022-10-22T11:53:25;17.70;99.90
50067;DHT22;35952;52.524;13.340;2022-10-22T11:58:39;17.80;99.90
50067;DHT22;35952;52.524;13.340;2022-10-22T12:08:30;18.30;99.90
50067;DHT22;35952;52.524;13.340;2022-10-22T12:13:31;18.30;99.90
50067;DHT22;35952;52.524;13.340;2022-10-22T12:16:00;18.30;99.90
50067;DHT22;35952;52.524;13.340;2022-10-22T12:18:30;18.30;99.90
50067;DHT22;35952;52.524;13.340;2022-10-22T12:20:57;18.20;99.90
50067;DHT22;35952;52.524;13.340;2022-10-22T12:23:29;18.30;99.90
50067;DHT22;35952;52.524;13.340;2022-10-22T12:25:56;18.30;99.90
50067;DHT22;35952;52.524;13.340;2022-10-22T12:28:22;18.30;99.90
50067;DHT22;35952;52.524;13.340;2022-10-22T12:30:47;18.30;99.90
50067;DHT22;35952;52.524;13.340;2022-10-22T12:33:31;18.30;99.90
50067;DHT22;35952;52.524;13.340;2022-10-22T12:35:57;18.30;99.90
50067;DHT22;35952;52.524;13.340;2022-10-22T12:38:24;18.30;99.90
50067;DHT22;35952;52.524;13.340;2022-10-22T12:40:53;18.30;99.90
50067;DHT22;35952;52.524;13.340;2022-10-22T12:43:25;18.30;99.90
50067;DHT22;35952;52.524;13.340;2022-10-22T12:45:51;18.30;99.90
50067;DHT22;35952;52.524;13.340;2022-10-22T12:48:28;18.20;99.90
50067;DHT22;35952;52.524;13.340;2022-10-22T12:50:57;18.20;99.90
50067;DHT22;35952;52.524;13.340;2022-10-22T12:53:36;18.30;99.90
50067;DHT22;35952;52.524;13.340;2022-10-22T12:56:06;18.30;99.90
50067;DHT22;35952;52.524;13.340;2022-10-22T12:58:44;18.20;99.90
50067;DHT22;35952;52.524;13.340;2022-10-22T13:01:15;18.20;99.90
50067;DHT22;35952;52.524;13.340;2022-10-22T13:03:44;18.30;99.90
50067;DHT22;35952;52.524;13.340;2022-10-22T13:08:55;18.20;99.90
50067;DHT22;35952;52.524;13.340;2022-10-22T13:11:21;18.20;99.90
50067;DHT22;35952;52.524;13.340;2022-10-22T13:13:46;18.30;99.90
50067;DHT22;35952;52.524;13.340;2022-10-22T13:16:21;18.40;99.90
50067;DHT22;35952;52.524;13.340;2022-10-22T13:18:49;18.30;99.90
50067;DHT22;35952;52.524;13.340;2022-10-22T13:21:37;18.20;99.90
50067;DHT22;35952;52.524;13.340;2022-10-22T13:24:23;18.30;99.90
50067;DHT22;35952;52.524;13.340;2022-10-22T13:26:51;18.40;99.90
50067;DHT22;35952;52.524;13.340;2022-10-22T13:29:19;18.20;99.90
50067;DHT22;35952;52.524;13.340;2022-10-22T13:31:48;18.30;99.90
50067;DHT22;35952;52.524;13.340;2022-10-22T13:34:17;18.30;99.90
50067;DHT22;35952;52.524;13.340;2022-10-22T13:36:43;18.30;99.90
50067;DHT22;35952;52.524;13.340;2022-10-22T13:39:17;18.20;99.90
50067;DHT22;35952;52.524;13.340;2022-10-22T13:41:43;18.30;99.90
50067;DHT22;35952;52.524;13.340;2022-10-22T13:44:09;18.20;99.90
50067;DHT22;35952;52.524;13.340;2022-10-22T13:46:35;18.30;99.90
50067;DHT22;35952;52.524;13.340;2022-10-22T13:49:11;18.20;99.90
50067;DHT22;35952;52.524;13.340;2022-10-22T13:51:38;18.30;99.90
50067;DHT22;35952;52.524;13.340;2022-10-22T13:54:08;18.30;99.90
50067;DHT22;35952;52.524;13.340;2022-10-22T13:56:36;18.30;99.90
50067;DHT22;35952;52.524;13.340;2022-10-22T13:59:02;18.20;99.90
50067;DHT22;35952;52.524;13.340;2022-10-22T14:01:28;18.30;99.90
50067;DHT22;35952;52.524;13.340;2022-10-22T14:03:55;18.20;99.90
50067;DHT22;35952;52.524;13.340;2022-10-22T14:06:23;18.10;99.90
50067;DHT22;35952;52.524;13.340;2022-10-22T14:09:02;18.00;99.90
50067;DHT22;35952;52.524;13.340;2022-10-22T14:11:28;17.90;99.90
50067;DHT22;35952;52.524;13.340;2022-10-22T14:13:57;17.80;99.90
50067;DHT22;35952;52.524;13.340;2022-10-22T14:16:24;17.80;99.90
50067;DHT22;35952;52.524;13.340;2022-10-22T14:18:51;17.80;99.90
50067;DHT22;35952;52.524;13.340;2022-10-22T14:21:17;18.00;99.90
50067;DHT22;35952;52.524;13.340;2022-10-22T14:23:45;18.10;99.90
50067;DHT22;35952;52.524;13.340;2022-10-22T14:26:28;18.00;99.90
50067;DHT22;35952;52.524;13.340;2022-10-22T14:28:56;17.80;99.90
50067;DHT22;35952;52.524;13.340;2022-10-22T14:31:22;17.80;99.90
50067;DHT22;35952;52.524;13.340;2022-10-22T14:33:47;17.80;99.90
50067;DHT22;35952;52.524;13.340;2022-10-22T14:36:15;17.80;99.90
50067;DHT22;35952;52.524;13.340;2022-10-22T14:38:42;17.80;99.90
50067;DHT22;35952;52.524;13.340;2022-10-22T14:41:21;17.90;99.90
50067;DHT22;35952;52.524;13.340;2022-10-22T14:43:47;18.00;99.90
50067;DHT22;35952;52.524;13.340;2022-10-22T14:46:15;18.00;99.90
50067;DHT22;35952;52.524;13.340;2022-10-22T14:48:41;18.00;99.90
50067;DHT22;35952;52.524;13.340;2022-10-22T14:51:11;17.90;99.90
50067;DHT22;35952;52.524;13.340;2022-10-22T14:53:37;18.00;99.90
50067;DHT22;35952;52.524;13.340;2022-10-22T14:56:03;18.00;99.90
50067;DHT22;35952;52.524;13.340;2022-10-22T14:58:29;18.10;99.90
50067;DHT22;35952;52.524;13.340;2022-10-22T15:00:55;18.10;99.90
50067;DHT22;35952;52.524;13.340;2022-10-22T15:03:20;18.00;99.90
50067;DHT22;35952;52.524;13.340;2022-10-22T15:05:49;17.90;99.90
50067;DHT22;35952;52.524;13.340;2022-10-22T15:08:15;17.80;99.90
50067;DHT22;35952;52.524;13.340;2022-10-22T15:10:40;17.60;99.90
50067;DHT22;35952;52.524;13.340;2022-10-22T15:13:06;17.50;99.90
50067;DHT22;35952;52.524;13.340;2022-10-22T15:15:31;17.30;99.90
50067;DHT22;35952;52.524;13.340;2022-10-22T15:17:57;17.30;99.90
50067;DHT22;35952;52.524;13.340;2022-10-22T15:20:22;17.30;99.90
50067;DHT22;35952;52.524;13.340;2022-10-22T15:22:48;17.20;99.90
50067;DHT22;35952;52.524;13.340;2022-10-22T15:25:13;17.10;99.90
50067;DHT22;35952;52.524;13.340;2022-10-22T15:27:39;17.00;99.90
50067;DHT22;35952;52.524;13.340;2022-10-22T15:30:05;16.90;99.90
50067;DHT22;35952;52.524;13.340;2022-10-22T15:32:31;16.90;99.90
50067;DHT22;35952;52.524;13.340;2022-10-22T15:34:58;16.90;99.90
50067;DHT22;35952;52.524;13.340;2022-10-22T15:37:25;16.80;99.90
50067;DHT22;35952;52.524;13.340;2022-10-22T15:39:51;16.80;99.90
50067;DHT22;35952;52.524;13.340;2022-10-22T15:42:16;16.70;99.90
50067;DHT22;35952;52.524;13.340;2022-10-22T15:44:45;16.70;99.90
50067;DHT22;35952;52.524;13.340;2022-10-22T15:47:10;16.60;99.90
50067;DHT22;35952;52.524;13.340;2022-10-22T15:49:37;16.40;99.90
50067;DHT22;35952;52.524;13.340;2022-10-22T15:52:04;16.30;99.90
50067;DHT22;35952;52.524;13.340;2022-10-22T15:54:30;16.20;99.90
50067;DHT22;35952;52.524;13.340;2022-10-22T15:56:56;16.00;99.90
50067;DHT22;35952;52.524;13.340;2022-10-22T15:59:23;15.90;99.90
50067;DHT22;35952;52.524;13.340;2022-10-22T16:01:49;15.80;99.90
50067;DHT22;35952;52.524;13.340;2022-10-22T16:04:15;15.80;99.90
50067;DHT22;35952;52.524;13.340;2022-10-22T16:06:48;15.70;99.90
50067;DHT22;35952;52.524;13.340;2022-10-22T16:09:20;15.60;99.90
50067;DHT22;35952;52.524;13.340;2022-10-22T16:11:46;15.50;99.90
50067;DHT22;35952;52.524;13.340;2022-10-22T16:14:14;15.50;99.90
50067;DHT22;35952;52.524;13.340;2022-10-22T16:16:44;15.50;99.90
50067;DHT22;35952;52.524;13.340;2022-10-22T16:19:11;15.40;99.90
50067;DHT22;35952;52.524;13.340;2022-10-22T16:21:38;15.40;99.90
50067;DHT22;35952;52.524;13.340;2022-10-22T16:24:05;15.40;99.90
50067;DHT22;35952;52.524;13.340;2022-10-22T16:26:30;15.30;99.90
50067;DHT22;35952;52.524;13.340;2022-10-22T16:28:57;15.20;99.90
50067;DHT22;35952;52.524;13.340;2022-10-22T16:31:22;15.20;99.90
50067;DHT22;35952;52.524;13.340;2022-10-22T16:33:48;15.10;99.90
50067;DHT22;35952;52.524;13.340;2022-10-22T16:36:16;15.10;99.90
50067;DHT22;35952;52.524;13.340;2022-10-22T16:38:43;15.00;99.90
50067;DHT22;35952;52.524;13.340;2022-10-22T16:41:19;15.00;99.90
50067;DHT22;35952;52.524;13.340;2022-10-22T16:43:46;15.00;99.90
50067;DHT22;35952;52.524;13.340;2022-10-22T16:46:17;14.90;99.90
50067;DHT22;35952;52.524;13.340;2022-10-22T16:48:48;14.80;99.90
50067;DHT22;35952;52.524;13.340;2022-10-22T16:51:16;14.80;99.90
50067;DHT22;35952;52.524;13.340;2022-10-22T16:53:42;14.70;99.90
50067;DHT22;35952;52.524;13.340;2022-10-22T16:56:12;14.70;99.90
50067;DHT22;35952;52.524;13.340;2022-10-22T16:58:38;14.60;99.90
50067;DHT22;35952;52.524;13.340;2022-10-22T17:01:08;14.60;99.90